Time;durP1;ratioP1;P1;durP2;ratioP2;P2;SDS_P1;SDS_P2;PMS_P1;PMS_P2;Temp;Humidity;BMP_temperature;BMP_pressure;BME280_temperature;BME280_humidity;BME280_pressure;Samples;Min_cycle;Max_cycle;Signal;HPM_P1;HPM_P2
2021/09/24 00:01:12;;;;;;;2.55;0.70;;;;;;;;;;5064636;28;20514;-79
2021/09/24 00:03:38;;;;;;;2.22;0.70;;;;;;;;;;5065749;28;20440;-79
2021/09/24 00:06:05;;;;;;;1.55;0.68;;;;;;;;;;5070007;28;20158;-78
2021/09/24 00:08:31;;;;;;;2.92;0.90;;;;;;;;;;5065190;28;20425;-79
2021/09/24 00:10:58;;;;;;;3.08;0.70;;;;;;;;;;5070801;28;20565;-78
2021/09/24 00:13:25;;;;;;;2.17;0.68;;;;;;;;;;5068025;28;20059;-79
2021/09/24 00:15:52;;;;;;;4.85;1.20;;;;;;;;;;5082294;28;20060;-78
2021/09/24 00:18:19;;;;;;;4.60;0.70;;;;;;;;;;5074315;28;20068;-78
2021/09/24 00:20:45;;;;;;;3.58;1.05;;;;;;;;;;5077091;28;20067;-78
2021/09/24 00:23:12;;;;;;;2.80;0.80;;;;;;;;;;5083136;28;20071;-79
2021/09/24 00:25:38;;;;;;;4.68;1.10;;;;;;;;;;5062423;28;20056;-79
2021/09/24 00:28:06;;;;;;;4.32;1.00;;;;;;;;;;5085472;28;20067;-79
2021/09/24 00:30:32;;;;;;;3.83;0.80;;;;;;;;;;5090167;28;20067;-79
2021/09/24 00:32:59;;;;;;;3.17;0.70;;;;;;;;;;5087571;28;20531;-78
2021/09/24 00:35:25;;;;;;;3.58;0.77;;;;;;;;;;5086619;28;20055;-79
2021/09/24 00:37:52;;;;;;;2.92;0.73;;;;;;;;;;5090201;28;20056;-79
2021/09/24 00:40:18;;;;;;;2.70;0.70;;;;;;;;;;5088635;28;20063;-79
2021/09/24 00:42:44;;;;;;;1.45;0.68;;;;;;;;;;5087902;28;20048;-78
2021/09/24 00:45:11;;;;;;;2.17;0.60;;;;;;;;;;5087887;28;20060;-79
2021/09/24 00:47:37;;;;;;;2.25;0.70;;;;;;;;;;5081634;28;20480;-79
2021/09/24 00:50:05;;;;;;;3.33;1.00;;;;;;;;;;5087326;28;20062;-79
2021/09/24 00:52:31;;;;;;;2.40;0.47;;;;;;;;;;5090480;28;20067;-78
2021/09/24 00:54:57;;;;;;;3.45;0.60;;;;;;;;;;5090736;28;20082;-79
2021/09/24 00:57:24;;;;;;;1.90;0.82;;;;;;;;;;5090006;28;20043;-79
2021/09/24 00:59:54;;;;;;;3.50;0.90;;;;;;;;;;5085795;28;20424;-79
2021/09/24 01:02:20;;;;;;;3.03;0.88;;;;;;;;;;5083738;28;20976;-80
2021/09/24 01:04:47;;;;;;;4.05;0.60;;;;;;;;;;5084975;28;20055;-80
2021/09/24 01:07:13;;;;;;;4.05;0.80;;;;;;;;;;5083104;28;20059;-79
2021/09/24 01:09:40;;;;;;;3.42;0.60;;;;;;;;;;5089800;28;20071;-80
2021/09/24 01:12:07;;;;;;;2.38;0.55;;;;;;;;;;5086052;28;20796;-80
2021/09/24 01:14:33;;;;;;;1.48;0.60;;;;;;;;;;5077089;28;20112;-79
2021/09/24 01:17:00;;;;;;;4.88;0.77;;;;;;;;;;5088341;28;20070;-79
2021/09/24 01:19:27;;;;;;;2.83;0.70;;;;;;;;;;5086962;28;20067;-79
2021/09/24 01:21:53;;;;;;;3.08;0.63;;;;;;;;;;5088206;28;20114;-78
2021/09/24 01:24:20;;;;;;;3.25;0.80;;;;;;;;;;5062720;28;20128;-80
2021/09/24 01:26:50;;;;;;;3.78;0.70;;;;;;;;;;5086530;28;20060;-79
2021/09/24 01:29:16;;;;;;;6.65;1.30;;;;;;;;;;5078922;28;20060;-79
2021/09/24 01:31:43;;;;;;;1.10;0.50;;;;;;;;;;5085247;28;20093;-83
2021/09/24 01:34:10;;;;;;;2.78;0.60;;;;;;;;;;5077663;28;20078;-79
2021/09/24 01:36:36;;;;;;;2.17;0.40;;;;;;;;;;5075783;28;20056;-79
2021/09/24 01:39:06;;;;;;;2.63;1.00;;;;;;;;;;5078975;28;20040;-79
2021/09/24 01:41:33;;;;;;;1.90;0.60;;;;;;;;;;5085850;28;20060;-78
2021/09/24 01:44:00;;;;;;;2.13;0.70;;;;;;;;;;5085717;28;20056;-79
2021/09/24 01:46:26;;;;;;;3.47;0.70;;;;;;;;;;5084456;28;20413;-78
2021/09/24 01:48:53;;;;;;;2.28;0.63;;;;;;;;;;5089341;28;20059;-79
2021/09/24 01:51:19;;;;;;;3.28;0.80;;;;;;;;;;5083645;28;20063;-78
2021/09/24 01:53:45;;;;;;;3.20;0.70;;;;;;;;;;5084425;28;20082;-79
2021/09/24 01:56:12;;;;;;;3.42;0.70;;;;;;;;;;5085738;28;20523;-79
2021/09/24 01:58:38;;;;;;;3.35;0.95;;;;;;;;;;5089071;28;20060;-78
2021/09/24 02:01:05;;;;;;;4.45;0.88;;;;;;;;;;5086426;28;20550;-79
2021/09/24 02:03:31;;;;;;;1.70;0.68;;;;;;;;;;5085894;28;20039;-79
2021/09/24 02:05:58;;;;;;;2.42;0.63;;;;;;;;;;5082589;28;20055;-79
2021/09/24 02:08:24;;;;;;;2.08;0.60;;;;;;;;;;5086622;28;20055;-79
2021/09/24 02:10:50;;;;;;;2.22;0.77;;;;;;;;;;5088744;28;20039;-79
2021/09/24 02:13:17;;;;;;;5.70;0.95;;;;;;;;;;5087503;28;20125;-79
2021/09/24 02:15:43;;;;;;;3.67;0.80;;;;;;;;;;5082471;28;20393;-79
2021/09/24 02:18:09;;;;;;;2.70;0.60;;;;;;;;;;5087764;28;20059;-78
2021/09/24 02:20:36;;;;;;;1.77;0.50;;;;;;;;;;5086963;28;20596;-79
2021/09/24 02:23:03;;;;;;;2.85;0.68;;;;;;;;;;5082758;28;20064;-79
2021/09/24 02:25:29;;;;;;;3.22;0.80;;;;;;;;;;5084003;28;20048;-79
2021/09/24 02:27:56;;;;;;;1.27;0.43;;;;;;;;;;5076080;28;20492;-78
2021/09/24 02:30:22;;;;;;;2.17;0.60;;;;;;;;;;5085882;28;20032;-79
2021/09/24 02:32:48;;;;;;;2.97;0.63;;;;;;;;;;5079710;28;20056;-79
2021/09/24 02:35:15;;;;;;;3.45;0.40;;;;;;;;;;5067702;28;20048;-79
2021/09/24 02:37:41;;;;;;;1.88;0.50;;;;;;;;;;5079751;28;20105;-79
2021/09/24 02:40:08;;;;;;;2.75;0.80;;;;;;;;;;5086027;28;20067;-79
2021/09/24 02:42:34;;;;;;;3.80;0.80;;;;;;;;;;5085081;28;20101;-79
2021/09/24 02:45:01;;;;;;;2.05;0.50;;;;;;;;;;5084179;28;20032;-79
2021/09/24 02:47:27;;;;;;;3.25;0.60;;;;;;;;;;5063641;28;20067;-79
2021/09/24 02:49:53;;;;;;;5.25;0.80;;;;;;;;;;5074778;28;20052;-79
2021/09/24 02:52:20;;;;;;;5.25;0.88;;;;;;;;;;5065840;28;20056;-79
2021/09/24 02:54:46;;;;;;;2.90;0.57;;;;;;;;;;5071873;28;20037;-79
2021/09/24 02:57:13;;;;;;;1.85;0.65;;;;;;;;;;5086474;28;20070;-79
2021/09/24 02:59:39;;;;;;;3.63;0.65;;;;;;;;;;5077296;28;20056;-79
2021/09/24 03:02:06;;;;;;;1.17;0.50;;;;;;;;;;5079070;28;20059;-79
2021/09/24 03:04:33;;;;;;;2.08;0.50;;;;;;;;;;5083009;28;20052;-79
2021/09/24 03:06:59;;;;;;;4.30;0.73;;;;;;;;;;5079999;28;20059;-79
2021/09/24 03:09:26;;;;;;;3.28;0.70;;;;;;;;;;5069722;28;20436;-80
2021/09/24 03:11:52;;;;;;;4.35;0.90;;;;;;;;;;5069642;28;20037;-78
2021/09/24 03:14:18;;;;;;;2.63;0.75;;;;;;;;;;5068045;28;20063;-78
2021/09/24 03:16:45;;;;;;;2.70;0.70;;;;;;;;;;5084631;28;20062;-79
2021/09/24 03:19:14;;;;;;;3.10;0.47;;;;;;;;;;5086008;28;20125;-79
2021/09/24 03:21:40;;;;;;;3.20;0.60;;;;;;;;;;5088938;28;20412;-79
2021/09/24 03:24:07;;;;;;;3.42;0.80;;;;;;;;;;5087700;28;20025;-78
2021/09/24 03:26:33;;;;;;;2.90;0.80;;;;;;;;;;5094232;28;20020;-79
2021/09/24 03:28:59;;;;;;;2.30;0.52;;;;;;;;;;5088856;28;20450;-78
2021/09/24 03:31:26;;;;;;;3.38;0.77;;;;;;;;;;5091331;28;20028;-83
2021/09/24 03:33:52;;;;;;;2.88;0.60;;;;;;;;;;5100392;28;20032;-79
2021/09/24 03:36:19;;;;;;;2.38;0.63;;;;;;;;;;5089258;28;20040;-79
2021/09/24 03:38:45;;;;;;;4.90;1.27;;;;;;;;;;5086696;28;22598;-78
2021/09/24 03:41:12;;;;;;;2.53;0.65;;;;;;;;;;5085787;28;20077;-79
2021/09/24 03:43:38;;;;;;;3.40;0.80;;;;;;;;;;5085739;28;20055;-78
2021/09/24 03:46:05;;;;;;;3.80;0.63;;;;;;;;;;5082900;28;20060;-78
2021/09/24 03:48:31;;;;;;;3.45;0.73;;;;;;;;;;5086295;28;20059;-78
2021/09/24 03:50:58;;;;;;;1.80;0.40;;;;;;;;;;5087231;28;20054;-78
2021/09/24 03:53:24;;;;;;;2.55;0.68;;;;;;;;;;5083891;28;20059;-77
2021/09/24 03:55:53;;;;;;;3.25;0.60;;;;;;;;;;5081226;28;20060;-77
2021/09/24 03:58:20;;;;;;;3.53;0.77;;;;;;;;;;5083801;28;20029;-77
2021/09/24 04:00:46;;;;;;;1.85;0.70;;;;;;;;;;5086964;28;20064;-77
2021/09/24 04:03:13;;;;;;;2.42;0.70;;;;;;;;;;5088787;28;20449;-78
2021/09/24 04:05:39;;;;;;;2.28;0.57;;;;;;;;;;5089911;28;20064;-77
2021/09/24 04:08:06;;;;;;;3.47;0.80;;;;;;;;;;5090088;28;20071;-76
2021/09/24 04:10:32;;;;;;;1.77;0.50;;;;;;;;;;5081631;28;20052;-76
2021/09/24 04:12:58;;;;;;;3.38;0.70;;;;;;;;;;5075937;28;20352;-76
2021/09/24 04:15:25;;;;;;;2.50;0.60;;;;;;;;;;5071904;28;20043;-77
2021/09/24 04:17:52;;;;;;;5.80;0.70;;;;;;;;;;5071336;28;20370;-77
2021/09/24 04:20:18;;;;;;;1.95;0.57;;;;;;;;;;5077283;28;20045;-78
2021/09/24 04:22:45;;;;;;;3.17;0.68;;;;;;;;;;5077572;28;20040;-76
2021/09/24 04:25:11;;;;;;;4.07;0.70;;;;;;;;;;5072810;28;20500;-77
2021/09/24 04:27:38;;;;;;;3.67;0.55;;;;;;;;;;5098937;28;20083;-76
2021/09/24 04:30:05;;;;;;;3.63;0.80;;;;;;;;;;5093569;28;20173;-79
2021/09/24 04:32:31;;;;;;;3.35;0.90;;;;;;;;;;5092901;28;20028;-77
2021/09/24 04:34:58;;;;;;;3.80;0.82;;;;;;;;;;5091897;28;20024;-77
2021/09/24 04:37:24;;;;;;;2.42;0.65;;;;;;;;;;5091531;28;20024;-77
2021/09/24 04:39:51;;;;;;;4.45;0.80;;;;;;;;;;5091946;28;20553;-77
2021/09/24 04:42:17;;;;;;;2.05;0.70;;;;;;;;;;5087991;28;20028;-76
2021/09/24 04:44:43;;;;;;;3.33;0.90;;;;;;;;;;5090511;28;20062;-75
2021/09/24 04:47:10;;;;;;;4.00;0.70;;;;;;;;;;5066936;28;20367;-75
2021/09/24 04:49:36;;;;;;;5.30;1.13;;;;;;;;;;5065742;28;20056;-77
2021/09/24 04:52:03;;;;;;;3.53;0.68;;;;;;;;;;5084577;28;20049;-76
2021/09/24 04:54:29;;;;;;;2.78;0.80;;;;;;;;;;5085397;28;20070;-76
2021/09/24 04:56:56;;;;;;;3.00;0.95;;;;;;;;;;5088442;28;20676;-77
2021/09/24 04:59:22;;;;;;;4.00;1.00;;;;;;;;;;5066587;28;20453;-76
2021/09/24 05:01:48;;;;;;;2.55;0.65;;;;;;;;;;5074746;28;20033;-76
2021/09/24 05:04:15;;;;;;;3.50;0.77;;;;;;;;;;5086950;28;20032;-76
2021/09/24 05:06:41;;;;;;;2.92;0.80;;;;;;;;;;5068875;28;20056;-76
2021/09/24 05:09:08;;;;;;;3.15;0.75;;;;;;;;;;5075986;28;20059;-76
2021/09/24 05:11:34;;;;;;;4.32;0.80;;;;;;;;;;5069738;28;20087;-75
2021/09/24 05:14:00;;;;;;;2.80;0.85;;;;;;;;;;5082200;28;20063;-76
2021/09/24 05:16:27;;;;;;;2.50;0.98;;;;;;;;;;5084564;28;20059;-76
2021/09/24 05:18:53;;;;;;;2.85;0.55;;;;;;;;;;5087332;28;20059;-77
2021/09/24 05:21:20;;;;;;;4.53;1.10;;;;;;;;;;5089736;28;20056;-75
2021/09/24 05:23:46;;;;;;;1.70;0.60;;;;;;;;;;5090317;28;20460;-76
2021/09/24 05:26:14;;;;;;;2.17;0.60;;;;;;;;;;5088172;28;20196;-76
2021/09/24 05:28:40;;;;;;;2.40;0.93;;;;;;;;;;5083622;28;20048;-76
2021/09/24 05:31:06;;;;;;;3.00;0.80;;;;;;;;;;5087641;28;20148;-76
2021/09/24 05:33:33;;;;;;;3.90;0.70;;;;;;;;;;5069996;28;20080;-76
2021/09/24 05:35:59;;;;;;;2.85;0.70;;;;;;;;;;5058876;28;20055;-77
2021/09/24 05:38:26;;;;;;;2.90;0.93;;;;;;;;;;5084880;28;20480;-77
2021/09/24 05:40:52;;;;;;;2.85;0.65;;;;;;;;;;5081317;28;20067;-77
2021/09/24 05:43:19;;;;;;;4.18;0.70;;;;;;;;;;5088513;28;20047;-77
2021/09/24 05:45:45;;;;;;;2.40;0.60;;;;;;;;;;5076884;28;20646;-76
2021/09/24 05:48:11;;;;;;;5.10;0.93;;;;;;;;;;5081573;28;20153;-77
2021/09/24 05:50:38;;;;;;;2.45;0.85;;;;;;;;;;5093623;28;20039;-77
2021/09/24 05:53:04;;;;;;;2.03;0.80;;;;;;;;;;5085287;28;20092;-76
2021/09/24 05:55:31;;;;;;;2.30;0.68;;;;;;;;;;5085586;28;20040;-76
2021/09/24 05:57:57;;;;;;;4.43;0.70;;;;;;;;;;5085692;28;20051;-77
2021/09/24 06:00:24;;;;;;;2.45;0.73;;;;;;;;;;5090386;28;20052;-76
2021/09/24 06:02:51;;;;;;;2.50;0.50;;;;;;;;;;5090066;28;20064;-76
2021/09/24 06:05:17;;;;;;;1.15;0.55;;;;;;;;;;5076660;28;20445;-76
2021/09/24 06:07:44;;;;;;;1.30;0.50;;;;;;;;;;5066865;28;20086;-76
2021/09/24 06:10:11;;;;;;;4.38;0.55;;;;;;;;;;5087799;28;20076;-77
2021/09/24 06:12:37;;;;;;;3.88;0.90;;;;;;;;;;5094500;28;20033;-76
2021/09/24 06:15:04;;;;;;;3.95;0.70;;;;;;;;;;5090424;28;20028;-77
2021/09/24 06:17:31;;;;;;;2.55;0.57;;;;;;;;;;5072139;28;20063;-76
2021/09/24 06:19:58;;;;;;;2.88;0.73;;;;;;;;;;5073897;27;20060;-77
2021/09/24 06:22:25;;;;;;;3.30;0.50;;;;;;;;;;5070935;28;20479;-76
2021/09/24 06:24:52;;;;;;;2.72;0.70;;;;;;;;;;5067627;28;20512;-77
2021/09/24 06:27:19;;;;;;;2.80;0.70;;;;;;;;;;5079293;28;20036;-77
2021/09/24 06:29:50;;;;;;;1.77;0.77;;;;;;;;;;5087141;28;20052;-77
2021/09/24 06:32:17;;;;;;;3.33;0.80;;;;;;;;;;5083975;28;20136;-77
2021/09/24 06:34:44;;;;;;;3.03;0.90;;;;;;;;;;5088550;28;20064;-76
2021/09/24 06:37:11;;;;;;;2.60;0.40;;;;;;;;;;5082869;28;20585;-77
2021/09/24 06:39:37;;;;;;;1.98;0.45;;;;;;;;;;5087253;28;20075;-77
2021/09/24 06:42:04;;;;;;;3.47;0.80;;;;;;;;;;5084281;28;20513;-76
2021/09/24 06:44:31;;;;;;;2.90;0.60;;;;;;;;;;5086977;28;20044;-76
2021/09/24 06:46:57;;;;;;;2.05;0.50;;;;;;;;;;5077586;28;20042;-77
2021/09/24 06:49:25;;;;;;;2.05;0.60;;;;;;;;;;5097343;27;20063;-76
2021/09/24 06:51:52;;;;;;;3.40;0.88;;;;;;;;;;5086612;28;20121;-76
2021/09/24 06:54:19;;;;;;;3.88;0.57;;;;;;;;;;5082271;28;20116;-75
2021/09/24 06:56:46;;;;;;;1.92;0.55;;;;;;;;;;5084662;28;20048;-75
2021/09/24 06:59:13;;;;;;;4.10;0.80;;;;;;;;;;5084527;28;20048;-77
2021/09/24 07:01:41;;;;;;;2.05;0.63;;;;;;;;;;5087826;28;20079;-77
2021/09/24 07:04:08;;;;;;;2.60;0.50;;;;;;;;;;5075760;28;20052;-74
2021/09/24 07:06:34;;;;;;;1.60;0.40;;;;;;;;;;5079245;28;20036;-77
2021/09/24 07:09:01;;;;;;;3.35;0.77;;;;;;;;;;5085567;28;20116;-77
2021/09/24 07:11:27;;;;;;;1.95;0.60;;;;;;;;;;5085921;28;20058;-77
2021/09/24 07:13:54;;;;;;;1.55;0.43;;;;;;;;;;5087182;28;20200;-75
2021/09/24 07:16:20;;;;;;;3.72;0.70;;;;;;;;;;5087185;28;20767;-76
2021/09/24 07:18:47;;;;;;;3.58;0.70;;;;;;;;;;5087421;28;20051;-76
2021/09/24 07:21:13;;;;;;;3.05;0.52;;;;;;;;;;5084618;28;20091;-76
2021/09/24 07:23:39;;;;;;;4.43;0.82;;;;;;;;;;5085095;28;20071;-75
2021/09/24 07:26:06;;;;;;;1.23;0.55;;;;;;;;;;5083121;28;20440;-75
2021/09/24 07:28:32;;;;;;;3.05;0.70;;;;;;;;;;5084393;28;20487;-76
2021/09/24 07:30:59;;;;;;;4.38;0.70;;;;;;;;;;5048902;28;20106;-76
2021/09/24 07:33:25;;;;;;;1.90;0.70;;;;;;;;;;5065719;28;20079;-75
2021/09/24 07:35:52;;;;;;;2.25;0.60;;;;;;;;;;5065161;28;20060;-75
2021/09/24 07:38:18;;;;;;;2.55;0.60;;;;;;;;;;5066754;28;20048;-75
2021/09/24 07:40:46;;;;;;;3.13;0.95;;;;;;;;;;5061776;28;20102;-75
2021/09/24 07:43:13;;;;;;;3.50;0.75;;;;;;;;;;5065681;28;20079;-75
2021/09/24 07:45:40;;;;;;;2.92;0.70;;;;;;;;;;5085168;28;20192;-75
2021/09/24 07:48:06;;;;;;;1.65;0.35;;;;;;;;;;5066412;28;20067;-76
2021/09/24 07:50:33;;;;;;;1.30;0.43;;;;;;;;;;5072974;28;20060;-74
2021/09/24 07:52:59;;;;;;;2.47;0.52;;;;;;;;;;5068622;28;20020;-76
2021/09/24 07:55:26;;;;;;;3.00;0.47;;;;;;;;;;5054011;28;20101;-76
2021/09/24 07:57:55;;;;;;;2.03;0.70;;;;;;;;;;5065545;28;20063;-75
2021/09/24 08:00:23;;;;;;;2.17;0.50;;;;;;;;;;5068406;28;20465;-76
2021/09/24 08:02:50;;;;;;;1.92;0.60;;;;;;;;;;5066343;28;20052;-76
2021/09/24 08:05:17;;;;;;;2.35;0.40;;;;;;;;;;5068598;28;20500;-76
2021/09/24 08:07:44;;;;;;;3.45;0.50;;;;;;;;;;5046997;28;20124;-75
2021/09/24 08:10:11;;;;;;;1.95;0.60;;;;;;;;;;5067212;28;20049;-75
2021/09/24 08:12:37;;;;;;;1.23;0.43;;;;;;;;;;5086913;28;20056;-75
2021/09/24 08:15:04;;;;;;;3.33;0.68;;;;;;;;;;5084905;28;20097;-75
2021/09/24 08:17:31;;;;;;;2.35;0.55;;;;;;;;;;5085626;28;20068;-75
2021/09/24 08:19:58;;;;;;;2.50;0.47;;;;;;;;;;5085412;28;20145;-77
2021/09/24 08:22:25;;;;;;;2.42;0.40;;;;;;;;;;5081105;28;20499;-77
2021/09/24 08:24:51;;;;;;;3.03;0.70;;;;;;;;;;5081953;28;20129;-77
2021/09/24 08:27:18;;;;;;;2.90;0.63;;;;;;;;;;5084790;28;20060;-77
2021/09/24 08:29:44;;;;;;;2.03;0.55;;;;;;;;;;5081487;28;20068;-76
2021/09/24 08:32:11;;;;;;;1.20;0.50;;;;;;;;;;5083555;28;20523;-76
2021/09/24 08:34:37;;;;;;;1.95;0.50;;;;;;;;;;5084181;28;20051;-76
2021/09/24 08:37:04;;;;;;;2.08;0.60;;;;;;;;;;5084890;28;20074;-76
2021/09/24 08:39:30;;;;;;;0.77;0.30;;;;;;;;;;5085701;28;20067;-76
2021/09/24 08:41:56;;;;;;;2.40;0.77;;;;;;;;;;5085255;28;20067;-76
2021/09/24 08:44:24;;;;;;;2.45;0.40;;;;;;;;;;5080449;28;20056;-76
2021/09/24 08:46:50;;;;;;;2.35;0.60;;;;;;;;;;5083032;28;20055;-76
2021/09/24 08:49:19;;;;;;;1.88;0.52;;;;;;;;;;5076239;28;20555;-76
2021/09/24 08:51:46;;;;;;;3.25;0.50;;;;;;;;;;5086656;28;20028;-77
2021/09/24 08:54:12;;;;;;;2.15;0.50;;;;;;;;;;5086136;28;20067;-76
2021/09/24 08:56:38;;;;;;;1.73;0.68;;;;;;;;;;5089224;28;20048;-77
2021/09/24 08:59:05;;;;;;;1.48;0.65;;;;;;;;;;5089535;28;20136;-76
2021/09/24 09:01:32;;;;;;;1.48;0.63;;;;;;;;;;5078467;28;20066;-76
2021/09/24 09:03:59;;;;;;;3.33;0.57;;;;;;;;;;5089224;28;20069;-77
2021/09/24 09:06:29;;;;;;;2.53;0.80;;;;;;;;;;5080916;28;20063;-76
2021/09/24 09:09:03;;;;;;;2.42;0.50;;;;;;;;;;5080543;28;20507;-76
2021/09/24 09:11:30;;;;;;;2.03;0.60;;;;;;;;;;5063548;28;20037;-76
2021/09/24 09:13:57;;;;;;;2.55;0.52;;;;;;;;;;5069222;28;20029;-76
2021/09/24 09:16:37;;;;;;;1.45;0.50;;;;;;;;;;5072435;28;20066;-77
2021/09/24 09:19:10;;;;;;;1.70;0.52;;;;;;;;;;5062148;28;20036;-76
2021/09/24 09:21:40;;;;;;;2.35;0.60;;;;;;;;;;5077454;28;20063;-77
2021/09/24 09:24:15;;;;;;;2.17;0.60;;;;;;;;;;5084709;28;20068;-77
2021/09/24 09:26:42;;;;;;;2.13;0.70;;;;;;;;;;5085654;28;20094;-77
2021/09/24 09:29:10;;;;;;;3.22;0.80;;;;;;;;;;5066222;28;20101;-77
2021/09/24 09:31:36;;;;;;;1.83;0.40;;;;;;;;;;5086946;28;20067;-76
2021/09/24 09:34:04;;;;;;;2.72;0.45;;;;;;;;;;5069299;28;20048;-76
2021/09/24 09:36:32;;;;;;;3.78;0.60;;;;;;;;;;5084740;28;20101;-76
2021/09/24 09:38:58;;;;;;;2.47;0.60;;;;;;;;;;5084666;28;20047;-77
2021/09/24 09:41:26;;;;;;;2.28;0.65;;;;;;;;;;5086696;28;20059;-76
2021/09/24 09:43:56;;;;;;;3.20;0.80;;;;;;;;;;5087882;28;20044;-76
2021/09/24 09:46:24;;;;;;;3.00;0.63;;;;;;;;;;5086762;27;20102;-75
2021/09/24 09:49:09;;;;;;;1.90;0.70;;;;;;;;;;5089363;28;20060;-76
2021/09/24 09:51:37;;;;;;;1.33;0.30;;;;;;;;;;5083663;28;20089;-77
2021/09/24 09:54:04;;;;;;;1.90;0.90;;;;;;;;;;5082252;28;20036;-75
2021/09/24 09:56:41;;;;;;;2.55;0.73;;;;;;;;;;5086510;28;20547;-77
2021/09/24 09:59:24;;;;;;;2.65;0.60;;;;;;;;;;5084572;28;20085;-77
2021/09/24 10:02:07;;;;;;;1.83;0.60;;;;;;;;;;5076245;28;20487;-78
2021/09/24 10:04:37;;;;;;;3.13;0.55;;;;;;;;;;5070722;28;20231;-77
2021/09/24 10:07:11;;;;;;;1.75;0.40;;;;;;;;;;5063144;28;20377;-77
2021/09/24 10:09:37;;;;;;;1.75;0.70;;;;;;;;;;5071960;28;20081;-78
2021/09/24 10:12:18;;;;;;;1.77;0.65;;;;;;;;;;5087826;28;20059;-77
2021/09/24 10:14:45;;;;;;;1.52;0.43;;;;;;;;;;5085972;28;20321;-78
2021/09/24 10:17:11;;;;;;;1.92;0.60;;;;;;;;;;5084761;28;20562;-78
2021/09/24 10:19:37;;;;;;;2.15;0.60;;;;;;;;;;5076038;28;20052;-77
2021/09/24 10:22:04;;;;;;;1.77;0.68;;;;;;;;;;5085844;28;20109;-77
2021/09/24 10:24:30;;;;;;;2.10;0.50;;;;;;;;;;5087193;28;20055;-77
2021/09/24 10:27:02;;;;;;;3.30;0.70;;;;;;;;;;5085335;28;20036;-77
2021/09/24 10:29:31;;;;;;;2.15;0.43;;;;;;;;;;5081738;28;20116;-77
2021/09/24 10:32:11;;;;;;;2.60;0.60;;;;;;;;;;5082626;28;20470;-78
2021/09/24 10:34:50;;;;;;;2.17;0.47;;;;;;;;;;5084292;28;20327;-78
2021/09/24 10:37:17;;;;;;;3.25;0.77;;;;;;;;;;5066891;28;20490;-78
2021/09/24 10:39:47;;;;;;;1.92;0.50;;;;;;;;;;5075843;28;20071;-78
2021/09/24 10:42:24;;;;;;;1.60;0.30;;;;;;;;;;5073319;28;20071;-77
2021/09/24 10:45:08;;;;;;;1.90;0.52;;;;;;;;;;5082854;28;20687;-77
2021/09/24 10:47:45;;;;;;;3.45;0.60;;;;;;;;;;5063974;28;21778;-77
2021/09/24 10:50:33;;;;;;;2.15;0.57;;;;;;;;;;5084651;28;20071;-78
2021/09/24 10:53:18;;;;;;;2.00;0.70;;;;;;;;;;5081637;28;20056;-77
2021/09/24 10:55:53;;;;;;;2.40;0.50;;;;;;;;;;5084710;28;20122;-77
2021/09/24 10:58:29;;;;;;;1.27;0.50;;;;;;;;;;5081165;28;20113;-78
2021/09/24 11:00:59;;;;;;;2.25;0.77;;;;;;;;;;5086942;28;20129;-77
2021/09/24 11:03:27;;;;;;;3.03;0.60;;;;;;;;;;5083327;28;20066;-77
2021/09/24 11:06:10;;;;;;;2.00;0.65;;;;;;;;;;5078429;28;20048;-77
2021/09/24 11:08:36;;;;;;;0.95;0.40;;;;;;;;;;5083816;28;20490;-77
2021/09/24 11:11:13;;;;;;;2.83;0.45;;;;;;;;;;5052357;28;20142;-77
2021/09/24 11:13:43;;;;;;;2.50;0.60;;;;;;;;;;5081947;28;20081;-78
2021/09/24 11:16:11;;;;;;;1.50;0.52;;;;;;;;;;5082906;28;20491;-78
2021/09/24 11:18:48;;;;;;;0.93;0.43;;;;;;;;;;5086185;28;20089;-77
2021/09/24 11:21:15;;;;;;;2.70;0.80;;;;;;;;;;5084398;28;20584;-79
2021/09/24 11:23:41;;;;;;;1.80;0.40;;;;;;;;;;5080402;28;20076;-77
2021/09/24 11:26:11;;;;;;;1.75;0.50;;;;;;;;;;5082309;28;20093;-79
2021/09/24 11:28:37;;;;;;;3.30;0.70;;;;;;;;;;5085128;28;20051;-78
2021/09/24 11:31:04;;;;;;;2.20;0.45;;;;;;;;;;5082684;28;20109;-78
2021/09/24 11:33:43;;;;;;;1.77;0.47;;;;;;;;;;5082715;28;20067;-77
2021/09/24 11:36:09;;;;;;;3.10;0.60;;;;;;;;;;5077246;28;20051;-77
2021/09/24 11:38:35;;;;;;;2.97;0.70;;;;;;;;;;5077531;28;20064;-78
2021/09/24 11:41:02;;;;;;;1.67;0.60;;;;;;;;;;5085134;28;20117;-76
2021/09/24 11:43:30;;;;;;;1.42;0.40;;;;;;;;;;5083930;28;20393;-77
2021/09/24 11:45:58;;;;;;;2.88;0.70;;;;;;;;;;5086655;28;20082;-76
2021/09/24 11:48:37;;;;;;;2.00;0.60;;;;;;;;;;5083674;28;20113;-77
2021/09/24 11:51:09;;;;;;;1.42;0.45;;;;;;;;;;5082242;28;20060;-78
2021/09/24 11:53:45;;;;;;;2.35;0.70;;;;;;;;;;5084365;28;20587;-78
2021/09/24 11:56:12;;;;;;;3.20;0.60;;;;;;;;;;5077978;28;20059;-77
2021/09/24 11:58:38;;;;;;;2.03;0.50;;;;;;;;;;5084943;28;20056;-78
2021/09/24 12:01:04;;;;;;;1.88;0.63;;;;;;;;;;5085248;28;20499;-78
2021/09/24 12:03:32;;;;;;;1.55;0.63;;;;;;;;;;5085702;28;20063;-77
2021/09/24 12:06:08;;;;;;;1.63;0.50;;;;;;;;;;5085030;28;20453;-78
2021/09/24 12:08:45;;;;;;;1.77;0.50;;;;;;;;;;5071916;28;21141;-78
2021/09/24 12:11:13;;;;;;;2.17;0.68;;;;;;;;;;5067656;28;20048;-77
2021/09/24 12:13:40;;;;;;;2.05;0.50;;;;;;;;;;5071730;28;20110;-77
2021/09/24 12:16:07;;;;;;;2.13;0.75;;;;;;;;;;5078627;28;20089;-78
2021/09/24 12:18:45;;;;;;;2.95;0.70;;;;;;;;;;5079365;28;20082;-78
2021/09/24 12:21:12;;;;;;;2.58;0.60;;;;;;;;;;5085772;28;20082;-76
2021/09/24 12:23:39;;;;;;;1.83;0.52;;;;;;;;;;5087347;28;20040;-76
2021/09/24 12:26:08;;;;;;;3.20;0.82;;;;;;;;;;5088513;28;20089;-76
2021/09/24 12:28:35;;;;;;;4.03;1.27;;;;;;;;;;5087422;28;20047;-77
2021/09/24 12:31:03;;;;;;;3.75;0.80;;;;;;;;;;5087012;28;20032;-76
2021/09/24 12:33:29;;;;;;;2.60;0.55;;;;;;;;;;5091309;28;20740;-77
2021/09/24 12:36:03;;;;;;;2.80;0.80;;;;;;;;;;5089119;28;20101;-76
2021/09/24 12:38:32;;;;;;;4.30;0.77;;;;;;;;;;5078309;28;20434;-76
2021/09/24 12:41:18;;;;;;;2.90;0.70;;;;;;;;;;5076890;28;20048;-77
2021/09/24 12:43:46;;;;;;;2.35;0.73;;;;;;;;;;5081741;28;20456;-78
2021/09/24 12:46:13;;;;;;;2.83;0.57;;;;;;;;;;5062353;28;20604;-79
2021/09/24 12:48:41;;;;;;;2.20;0.68;;;;;;;;;;5069762;28;20454;-78
2021/09/24 12:51:08;;;;;;;2.03;0.73;;;;;;;;;;5066521;28;20041;-79
2021/09/24 12:53:35;;;;;;;3.75;0.73;;;;;;;;;;5070611;28;20036;-78
2021/09/24 12:56:03;;;;;;;1.83;0.63;;;;;;;;;;5069995;28;20039;-77
2021/09/24 12:58:32;;;;;;;2.65;0.80;;;;;;;;;;5088328;28;20068;-76
2021/09/24 13:00:59;;;;;;;4.85;1.08;;;;;;;;;;5092715;27;20100;-77
2021/09/24 13:03:28;;;;;;;3.35;0.90;;;;;;;;;;5087695;28;20028;-77
2021/09/24 13:05:56;;;;;;;4.68;1.13;;;;;;;;;;5090993;28;20085;-75
2021/09/24 13:08:22;;;;;;;8.43;1.30;;;;;;;;;;5082501;28;20569;-75
2021/09/24 13:10:49;;;;;;;4.30;1.02;;;;;;;;;;5089298;28;20063;-75
2021/09/24 13:13:15;;;;;;;5.55;1.00;;;;;;;;;;5083249;28;20066;-75
2021/09/24 13:15:42;;;;;;;4.60;0.82;;;;;;;;;;5063633;28;20374;-77
2021/09/24 13:18:11;;;;;;;1.92;0.77;;;;;;;;;;5064185;28;20511;-77
2021/09/24 13:20:37;;;;;;;2.78;0.82;;;;;;;;;;5051165;28;20056;-76
2021/09/24 13:23:04;;;;;;;3.67;1.05;;;;;;;;;;5073973;28;20044;-76
2021/09/24 13:25:30;;;;;;;3.67;0.80;;;;;;;;;;5071446;28;20082;-76
2021/09/24 13:27:57;;;;;;;2.67;0.85;;;;;;;;;;5085389;28;20161;-76
2021/09/24 13:30:23;;;;;;;2.85;1.02;;;;;;;;;;5084954;28;20118;-76
2021/09/24 13:32:49;;;;;;;4.63;0.77;;;;;;;;;;5074018;28;20040;-80
2021/09/24 13:35:16;;;;;;;2.67;0.80;;;;;;;;;;5065424;28;20488;-76
2021/09/24 13:37:43;;;;;;;3.30;0.75;;;;;;;;;;5076090;28;20400;-76
2021/09/24 13:40:10;;;;;;;2.88;1.25;;;;;;;;;;5087604;28;20431;-76
2021/09/24 13:42:38;;;;;;;4.07;0.82;;;;;;;;;;5086998;28;20028;-76
2021/09/24 13:45:08;;;;;;;3.88;1.08;;;;;;;;;;5067108;28;20086;-77
2021/09/24 13:47:35;;;;;;;2.65;0.68;;;;;;;;;;5084802;28;20029;-77
2021/09/24 13:50:01;;;;;;;2.45;0.75;;;;;;;;;;5077390;28;20081;-77
2021/09/24 13:52:30;;;;;;;4.05;0.98;;;;;;;;;;5092835;28;20036;-79
2021/09/24 13:54:57;;;;;;;7.70;1.40;;;;;;;;;;5091635;28;20438;-78
2021/09/24 13:57:23;;;;;;;5.53;1.50;;;;;;;;;;5054246;28;20032;-81
2021/09/24 13:59:50;;;;;;;4.60;1.60;;;;;;;;;;5073801;28;21024;-80
2021/09/24 14:02:17;;;;;;;5.40;1.65;;;;;;;;;;5084959;28;20075;-81
2021/09/24 14:04:43;;;;;;;6.75;1.48;;;;;;;;;;5069791;28;20072;-80
2021/09/24 14:07:10;;;;;;;8.52;1.98;;;;;;;;;;5078885;28;20068;-79
2021/09/24 14:09:36;;;;;;;8.23;1.50;;;;;;;;;;5085558;28;20035;-81
2021/09/24 14:12:03;;;;;;;7.78;1.17;;;;;;;;;;5090880;28;20040;-78
2021/09/24 14:14:29;;;;;;;7.32;1.52;;;;;;;;;;5069146;28;20040;-78
2021/09/24 14:16:55;;;;;;;6.35;1.20;;;;;;;;;;5087979;28;20511;-80
2021/09/24 14:19:22;;;;;;;5.13;1.38;;;;;;;;;;5087242;28;20063;-79
2021/09/24 14:21:49;;;;;;;3.72;1.00;;;;;;;;;;5058208;28;20072;-80
2021/09/24 14:24:16;;;;;;;6.35;1.55;;;;;;;;;;5046757;28;20117;-81
2021/09/24 14:26:42;;;;;;;6.03;1.50;;;;;;;;;;5079107;28;20062;-80
2021/09/24 14:29:09;;;;;;;5.93;1.45;;;;;;;;;;5080217;28;20056;-80
2021/09/24 14:31:35;;;;;;;9.25;1.60;;;;;;;;;;5084802;28;20063;-80
2021/09/24 14:34:02;;;;;;;5.90;1.40;;;;;;;;;;5088167;28;20052;-79
2021/09/24 14:36:28;;;;;;;7.32;1.60;;;;;;;;;;5073648;28;20111;-80
2021/09/24 14:38:54;;;;;;;7.13;1.50;;;;;;;;;;5088286;28;20086;-79
2021/09/24 14:41:21;;;;;;;3.85;1.10;;;;;;;;;;5068896;28;20452;-80
2021/09/24 14:43:47;;;;;;;5.68;1.40;;;;;;;;;;5083769;28;20056;-80
2021/09/24 14:46:14;;;;;;;5.25;1.42;;;;;;;;;;5067047;28;20056;-79